createdAt,value
2023-04-15T00:00:26.209Z,11.15
2023-04-15T00:03:31.086Z,11.77
2023-04-15T00:06:35.801Z,11.00
2023-04-15T00:09:39.690Z,11.68
2023-04-15T00:12:43.790Z,11.55
2023-04-15T00:15:47.545Z,12.15
2023-04-15T00:18:50.964Z,11.05
2023-04-15T00:21:54.600Z,11.88
2023-04-15T00:24:57.720Z,13.40
2023-04-15T00:28:01.159Z,12.03
2023-04-15T00:31:04.542Z,11.00
2023-04-15T00:34:08.555Z,11.70
2023-04-15T00:37:11.865Z,11.02
2023-04-15T00:40:18.981Z,10.70
2023-04-15T00:43:22.763Z,11.70
2023-04-15T00:46:29.757Z,10.85
2023-04-15T00:49:33.278Z,11.33
2023-04-15T00:52:38.012Z,11.20
2023-04-15T00:55:41.229Z,9.95
2023-04-15T00:58:44.651Z,10.25
2023-04-15T01:01:48.957Z,9.35
2023-04-15T01:04:52.668Z,9.93
2023-04-15T01:07:57.411Z,10.35
2023-04-15T01:11:03.817Z,9.87
2023-04-15T01:14:09.109Z,10.23
2023-04-15T01:17:14.305Z,10.30
2023-04-15T01:20:17.712Z,10.02
2023-04-15T01:23:23.332Z,9.77
2023-04-15T01:26:27.688Z,10.32
2023-04-15T01:29:33.346Z,9.63
2023-04-15T01:32:37.095Z,9.83
2023-04-15T01:35:40.463Z,9.85
2023-04-15T01:38:43.952Z,9.85
2023-04-15T01:41:47.658Z,10.50
2023-04-15T01:44:52.397Z,9.52
2023-04-15T01:47:55.942Z,10.55
2023-04-15T01:50:59.715Z,10.02
2023-04-15T01:54:03.676Z,10.68
2023-04-15T01:57:07.080Z,10.75
2023-04-15T02:00:11.769Z,10.20
2023-04-15T02:03:16.106Z,10.03
2023-04-15T02:06:19.588Z,10.27
2023-04-15T02:09:24.017Z,10.13
2023-04-15T02:12:27.854Z,9.80
2023-04-15T02:15:31.120Z,9.65
2023-04-15T02:18:36.560Z,10.55
2023-04-15T02:21:41.768Z,12.10
2023-04-15T02:24:47.208Z,10.77
2023-04-15T02:27:50.198Z,10.30
2023-04-15T02:30:58.542Z,9.73
2023-04-15T02:34:04.426Z,9.30
2023-04-15T02:37:09.974Z,9.65
2023-04-15T02:40:13.650Z,9.77
2023-04-15T02:43:17.850Z,9.90
2023-04-15T02:46:23.049Z,11.73
2023-04-15T02:49:30.020Z,9.68
2023-04-15T02:52:35.071Z,9.65
2023-04-15T02:55:39.505Z,9.55
2023-04-15T02:58:45.799Z,9.48
2023-04-15T03:01:49.738Z,8.90
2023-04-15T03:04:53.139Z,8.97
2023-04-15T03:07:56.772Z,8.15
2023-04-15T03:11:01.035Z,9.15
2023-04-15T03:14:04.855Z,9.77
2023-04-15T03:17:08.228Z,9.82
2023-04-15T03:20:11.863Z,10.02
2023-04-15T03:23:15.059Z,10.70
2023-04-15T03:26:31.912Z,9.10
2023-04-15T03:29:36.877Z,9.85
2023-04-15T03:32:40.884Z,9.15
2023-04-15T03:35:44.788Z,8.80
2023-04-15T03:38:49.472Z,9.73
2023-04-15T03:41:52.773Z,8.57
2023-04-15T03:44:56.401Z,8.63
2023-04-15T03:48:11.560Z,8.80
2023-04-15T03:51:20.863Z,8.73
2023-04-15T03:54:24.786Z,8.98
2023-04-15T03:57:28.357Z,8.63
2023-04-15T04:00:35.579Z,8.88
2023-04-15T04:03:39.287Z,9.68
2023-04-15T04:06:42.394Z,9.32
2023-04-15T04:09:48.405Z,8.77
2023-04-15T04:12:53.868Z,9.80
2023-04-15T04:15:57.338Z,9.48
2023-04-15T04:19:00.875Z,9.47
2023-04-15T04:22:04.656Z,9.55
2023-04-15T04:25:10.254Z,9.57
2023-04-15T04:28:13.792Z,10.35
2023-04-15T04:31:17.222Z,9.07
2023-04-15T04:34:21.261Z,10.10
2023-04-15T04:37:24.991Z,9.45
2023-04-15T04:40:28.305Z,10.50
2023-04-15T04:43:31.487Z,10.40
2023-04-15T04:46:35.906Z,10.48
2023-04-15T04:49:39.594Z,10.57
2023-04-15T04:52:42.953Z,15.90
2023-04-15T04:55:46.045Z,17.08
2023-04-15T04:58:49.499Z,17.12
2023-04-15T05:01:53.260Z,24.75
2023-04-15T05:04:56.901Z,21.27
2023-04-15T05:07:59.958Z,18.25
2023-04-15T05:11:03.831Z,13.95
2023-04-15T05:14:07.754Z,12.43
2023-04-15T05:17:11.764Z,11.73
2023-04-15T05:20:15.812Z,10.05
2023-04-15T05:23:19.620Z,10.30
2023-04-15T05:26:22.879Z,10.00
2023-04-15T05:29:26.386Z,9.02
2023-04-15T05:32:29.593Z,9.27
2023-04-15T05:35:34.541Z,9.30
2023-04-15T05:38:37.841Z,9.20
2023-04-15T05:41:42.178Z,9.20
2023-04-15T05:44:45.309Z,8.27
2023-04-15T05:47:51.043Z,8.82
2023-04-15T05:50:54.794Z,9.07
2023-04-15T05:53:58.395Z,9.47
2023-04-15T05:57:01.901Z,10.13
2023-04-15T06:00:06.449Z,9.75
2023-04-15T06:03:12.748Z,8.68
2023-04-15T06:06:16.638Z,8.00
2023-04-15T06:09:19.724Z,8.95
2023-04-15T06:12:23.028Z,8.00
2023-04-15T06:15:26.220Z,8.18
2023-04-15T06:18:29.867Z,8.23
2023-04-15T06:21:33.605Z,6.30
2023-04-15T06:24:37.256Z,7.15
2023-04-15T06:27:41.545Z,7.32
2023-04-15T06:30:49.120Z,7.00
2023-04-15T06:33:52.483Z,6.50
2023-04-15T06:36:57.198Z,6.93
2023-04-15T06:40:00.291Z,8.00
2023-04-15T06:43:05.008Z,7.30
2023-04-15T06:46:09.010Z,7.15
2023-04-15T06:49:12.472Z,7.68
2023-04-15T06:52:16.817Z,8.45
2023-04-15T06:55:20.382Z,7.22
2023-04-15T06:58:23.475Z,7.53
2023-04-15T07:01:26.884Z,6.60
2023-04-15T07:04:30.690Z,6.82
2023-04-15T07:07:34.280Z,6.10
2023-04-15T07:10:38.243Z,5.82
2023-04-15T07:13:41.611Z,5.82
2023-04-15T07:16:44.914Z,6.07
2023-04-15T07:19:48.340Z,5.62
2023-04-15T07:22:51.433Z,5.37
2023-04-15T07:25:55.958Z,6.28
2023-04-15T07:28:59.082Z,6.23
2023-04-15T07:32:02.828Z,5.07
2023-04-15T07:35:06.290Z,5.03
2023-04-15T07:38:09.719Z,4.62
2023-04-15T07:41:13.154Z,4.10
2023-04-15T07:44:16.749Z,3.90
2023-04-15T07:47:19.925Z,3.73
2023-04-15T07:50:24.302Z,4.45
2023-04-15T07:53:27.607Z,4.07
2023-04-15T07:56:31.234Z,4.47
2023-04-15T07:59:34.495Z,4.30
2023-04-15T08:02:40.214Z,4.73
2023-04-15T08:05:44.837Z,4.50
2023-04-15T08:08:48.366Z,4.55
2023-04-15T08:11:52.059Z,4.43
2023-04-15T08:14:55.717Z,4.07
2023-04-15T08:18:01.402Z,3.87
2023-04-15T08:21:05.902Z,4.25
2023-04-15T08:24:09.356Z,3.95
2023-04-15T08:27:13.789Z,4.72
2023-04-15T08:30:19.675Z,3.77
2023-04-15T08:33:24.027Z,3.80
2023-04-15T08:36:27.642Z,3.30
2023-04-15T08:39:30.918Z,3.20
2023-04-15T08:42:42.974Z,4.05
2023-04-15T08:45:48.761Z,3.50
2023-04-15T08:48:56.722Z,4.05
2023-04-15T08:52:01.837Z,4.53
2023-04-15T08:55:07.621Z,3.40
2023-04-15T08:58:13.020Z,3.17
2023-04-15T09:01:17.171Z,3.20
2023-04-15T09:04:20.789Z,3.67
2023-04-15T09:07:24.188Z,2.33
2023-04-15T09:10:28.267Z,3.00
2023-04-15T09:13:32.199Z,2.75
2023-04-15T09:17:01.479Z,2.40
2023-04-15T09:20:09.960Z,2.00
2023-04-15T09:23:17.671Z,1.55
2023-04-15T09:26:34.863Z,2.28
2023-04-15T09:29:38.251Z,1.50
2023-04-15T09:32:54.137Z,1.90
2023-04-15T09:36:07.017Z,1.97
2023-04-15T09:39:10.467Z,1.90
2023-04-15T09:42:14.609Z,1.90
2023-04-15T09:45:18.177Z,1.55
2023-04-15T09:48:27.400Z,1.40
2023-04-15T09:51:35.936Z,1.30
2023-04-15T09:54:39.303Z,1.60
2023-04-15T09:57:44.463Z,1.42
2023-04-15T10:00:49.331Z,1.92
2023-04-15T10:03:54.610Z,1.37
2023-04-15T10:06:58.536Z,0.90
2023-04-15T10:10:03.826Z,1.02
2023-04-15T10:13:07.567Z,1.17
2023-04-15T10:16:20.017Z,1.30
2023-04-15T10:19:27.806Z,1.13
2023-04-15T10:22:32.818Z,1.37
2023-04-15T10:25:37.541Z,1.40
2023-04-15T10:28:41.789Z,1.45
2023-04-15T10:31:45.608Z,1.58
2023-04-15T10:34:51.882Z,1.67
2023-04-15T10:37:57.007Z,1.77
2023-04-15T10:41:17.678Z,1.35
2023-04-15T10:44:22.720Z,0.93
2023-04-15T10:47:26.256Z,1.65
2023-04-15T10:50:33.769Z,4.53
2023-04-15T10:53:38.078Z,1.60
2023-04-15T10:56:45.864Z,1.60
2023-04-15T10:59:59.210Z,1.83
2023-04-15T11:03:10.041Z,1.70
2023-04-15T11:06:13.699Z,2.03
2023-04-15T11:09:32.676Z,2.23
2023-04-15T11:12:36.591Z,2.03
2023-04-15T11:15:48.065Z,1.20
2023-04-15T11:18:56.149Z,1.95
2023-04-15T11:22:07.611Z,1.70
2023-04-15T11:25:10.935Z,1.93
2023-04-15T11:28:14.376Z,1.80
2023-04-15T11:31:20.115Z,1.60
2023-04-15T11:34:24.117Z,1.20
2023-04-15T11:37:30.480Z,0.90
2023-04-15T11:40:35.585Z,1.10
2023-04-15T11:43:40.423Z,1.00
2023-04-15T11:46:45.470Z,0.80
2023-04-15T11:49:48.979Z,1.10
2023-04-15T11:53:01.098Z,1.30
2023-04-15T11:56:05.077Z,2.20
2023-04-15T11:59:08.434Z,1.85
2023-04-15T12:02:13.645Z,1.20
2023-04-15T12:05:17.456Z,1.73
2023-04-15T12:08:21.376Z,1.43
2023-04-15T12:11:31.041Z,1.07
2023-04-15T12:14:34.460Z,1.40
2023-04-15T12:17:50.976Z,3.75
2023-04-15T12:20:56.154Z,1.12
2023-04-15T12:24:03.051Z,1.13
2023-04-15T12:27:08.051Z,1.50
2023-04-15T12:30:11.849Z,1.50
2023-04-15T12:33:15.451Z,1.10
2023-04-15T12:36:20.086Z,0.50
2023-04-15T12:39:25.680Z,0.70
2023-04-15T12:42:29.389Z,1.30
2023-04-15T12:45:33.052Z,1.05
2023-04-15T12:48:37.009Z,0.60
2023-04-15T12:51:40.017Z,0.60
2023-04-15T12:54:43.591Z,1.00
2023-04-15T12:57:46.724Z,0.90
2023-04-15T13:00:50.492Z,0.80
2023-04-15T13:03:54.089Z,0.82
2023-04-15T13:06:57.705Z,1.10
2023-04-15T13:10:01.198Z,0.90
2023-04-15T13:13:05.603Z,0.70
2023-04-15T13:16:08.811Z,0.82
2023-04-15T13:19:12.228Z,1.08
2023-04-15T13:22:15.640Z,1.48
2023-04-15T13:25:20.150Z,3.70
2023-04-15T13:28:23.229Z,2.27
2023-04-15T13:31:27.350Z,1.45
2023-04-15T13:34:32.107Z,1.00
2023-04-15T13:37:35.684Z,0.80
2023-04-15T13:40:38.906Z,1.43
2023-04-15T13:43:42.417Z,1.87
2023-04-15T13:46:45.605Z,4.78
2023-04-15T13:49:48.957Z,1.90
2023-04-15T13:52:52.956Z,1.20
2023-04-15T13:55:56.502Z,3.43
2023-04-15T13:59:02.299Z,2.00
2023-04-15T14:02:05.904Z,1.25
2023-04-15T14:05:10.794Z,1.37
2023-04-15T14:08:14.253Z,1.80
2023-04-15T14:11:18.119Z,1.90
2023-04-15T14:14:21.325Z,2.00
2023-04-15T14:17:25.288Z,1.67
2023-04-15T14:20:29.615Z,1.25
2023-04-15T14:23:33.396Z,1.80
2023-04-15T14:26:37.165Z,1.60
2023-04-15T14:29:41.292Z,3.23
2023-04-15T14:32:44.814Z,2.22
2023-04-15T14:35:50.068Z,1.80
2023-04-15T14:38:53.400Z,2.08
2023-04-15T14:41:56.879Z,1.60
2023-04-15T14:45:00.795Z,1.90
2023-04-15T14:48:09.938Z,2.70
2023-04-15T14:51:14.153Z,2.87
2023-04-15T14:54:21.210Z,2.53
2023-04-15T14:57:25.418Z,2.30
2023-04-15T15:00:28.834Z,2.10
2023-04-15T15:03:32.474Z,2.72
2023-04-15T15:06:36.227Z,2.37
2023-04-15T15:09:39.449Z,4.28
2023-04-15T15:12:45.823Z,3.07
2023-04-15T15:15:51.951Z,3.73
2023-04-15T15:18:55.625Z,3.17
2023-04-15T15:21:59.009Z,3.10
2023-04-15T15:25:02.646Z,3.70
2023-04-15T15:28:06.416Z,3.77
2023-04-15T15:31:09.962Z,3.53
2023-04-15T15:34:14.071Z,3.53
2023-04-15T15:37:19.323Z,4.43
2023-04-15T15:40:22.753Z,4.32
2023-04-15T15:43:26.822Z,3.80
2023-04-15T15:46:31.585Z,3.80
2023-04-15T15:49:35.795Z,3.40
2023-04-15T15:52:38.809Z,3.35
2023-04-15T15:55:42.390Z,3.53
2023-04-15T15:58:50.252Z,3.63
2023-04-15T16:01:53.902Z,3.33
2023-04-15T16:04:57.340Z,3.53
2023-04-15T16:08:00.837Z,2.72
2023-04-15T16:11:04.808Z,3.00
2023-04-15T16:14:08.367Z,3.53
2023-04-15T16:17:12.203Z,3.67
2023-04-15T16:20:15.777Z,1.60
2023-04-15T16:23:20.735Z,1.40
2023-04-15T16:26:24.353Z,1.15
2023-04-15T16:29:29.069Z,2.37
2023-04-15T16:32:32.385Z,1.10
2023-04-15T16:35:36.107Z,1.87
2023-04-15T16:38:39.725Z,2.10
2023-04-15T16:41:43.399Z,1.87
2023-04-15T16:44:46.651Z,2.50
2023-04-15T16:47:50.411Z,2.30
2023-04-15T16:50:54.984Z,2.10
2023-04-15T16:53:58.781Z,4.40
2023-04-15T16:57:02.943Z,5.37
2023-04-15T17:00:07.430Z,2.50
2023-04-15T17:03:11.160Z,4.03
2023-04-15T17:06:17.792Z,3.30
2023-04-15T17:09:21.106Z,3.35
2023-04-15T17:12:24.792Z,3.25
2023-04-15T17:15:28.477Z,3.17
2023-04-15T17:18:32.731Z,3.37
2023-04-15T17:21:36.355Z,3.72
2023-04-15T17:24:39.892Z,3.83
2023-04-15T17:27:43.229Z,4.03
2023-04-15T17:30:48.289Z,3.95
2023-04-15T17:34:03.984Z,4.60
2023-04-15T17:37:13.779Z,7.47
2023-04-15T17:40:17.341Z,7.62
2023-04-15T17:43:21.410Z,10.00
2023-04-15T17:46:25.469Z,9.40
2023-04-15T17:49:31.403Z,8.98
2023-04-15T17:52:36.454Z,7.80
2023-04-15T17:55:40.264Z,8.48
2023-04-15T17:58:44.057Z,8.38
2023-04-15T18:01:48.451Z,11.20
2023-04-15T18:05:02.065Z,11.50
2023-04-15T18:08:07.396Z,15.60
2023-04-15T18:11:12.518Z,25.37
2023-04-15T18:14:26.963Z,26.75
2023-04-15T18:17:37.542Z,26.27
2023-04-15T18:20:43.275Z,27.50
2023-04-15T18:23:46.838Z,26.13
2023-04-15T18:26:51.021Z,24.77
2023-04-15T18:29:54.891Z,25.23
2023-04-15T18:33:01.825Z,26.17
2023-04-15T18:36:05.435Z,25.80
2023-04-15T18:39:09.130Z,23.70
2023-04-15T18:42:13.686Z,20.40
2023-04-15T18:45:17.442Z,20.23
2023-04-15T18:48:22.958Z,20.03
2023-04-15T18:51:27.195Z,20.27
2023-04-15T18:54:32.605Z,19.75
2023-04-15T18:57:37.040Z,19.80
2023-04-15T19:00:44.169Z,19.50
2023-04-15T19:03:48.663Z,19.02
2023-04-15T19:06:52.967Z,20.65
2023-04-15T19:09:57.861Z,19.25
2023-04-15T19:13:04.451Z,18.05
2023-04-15T19:16:09.750Z,22.90
2023-04-15T19:19:16.100Z,23.70
2023-04-15T19:22:20.411Z,25.43
2023-04-15T19:25:25.354Z,25.08
2023-04-15T19:28:31.183Z,23.00
2023-04-15T19:31:35.707Z,19.87
2023-04-15T19:34:42.621Z,18.13
2023-04-15T19:37:48.350Z,14.10
2023-04-15T19:40:52.324Z,13.82
2023-04-15T19:43:57.019Z,17.02
2023-04-15T19:47:00.631Z,17.87
2023-04-15T19:50:08.082Z,27.45
2023-04-15T19:53:12.218Z,34.33
2023-04-15T19:56:21.957Z,31.12
2023-04-15T19:59:26.507Z,31.57
2023-04-15T20:02:31.684Z,29.83
2023-04-15T20:05:36.866Z,29.33
2023-04-15T20:08:43.236Z,32.00
2023-04-15T20:12:48.352Z,31.20
2023-04-15T20:15:12.233Z,31.60
2023-04-15T20:18:17.768Z,28.98
2023-04-15T20:21:22.815Z,28.42
2023-04-15T20:24:26.600Z,25.98
2023-04-15T20:27:30.506Z,26.60
2023-04-15T20:30:35.600Z,28.05
2023-04-15T20:33:39.129Z,27.80
2023-04-15T20:36:42.743Z,24.95
2023-04-15T20:39:46.229Z,24.42
2023-04-15T20:42:51.611Z,23.73
2023-04-15T20:45:57.555Z,23.83
2023-04-15T20:49:03.533Z,23.85
2023-04-15T20:52:08.588Z,24.48
2023-04-15T20:55:12.881Z,25.90
2023-04-15T20:58:16.598Z,27.57
2023-04-15T21:01:21.055Z,34.13
2023-04-15T21:04:25.071Z,39.05
2023-04-15T21:07:28.873Z,38.30
2023-04-15T21:10:35.363Z,37.42
2023-04-15T21:13:38.992Z,37.90
2023-04-15T21:16:51.100Z,39.92
2023-04-15T21:19:54.769Z,36.27
2023-04-15T21:22:58.144Z,34.72
2023-04-15T21:26:02.041Z,36.08
2023-04-15T21:29:07.909Z,38.03
2023-04-15T21:32:13.076Z,35.38
2023-04-15T21:35:16.255Z,34.63
2023-04-15T21:38:21.330Z,36.55
2023-04-15T21:41:27.330Z,38.03
2023-04-15T21:44:31.311Z,37.33
2023-04-15T21:47:57.150Z,34.85
2023-04-15T21:51:01.029Z,34.42
2023-04-15T21:54:04.363Z,34.93
2023-04-15T21:57:07.853Z,35.28
2023-04-15T22:00:11.979Z,34.10
2023-04-15T22:03:16.185Z,32.92
2023-04-15T22:06:19.820Z,35.10
2023-04-15T22:09:23.018Z,34.33
2023-04-15T22:12:26.781Z,35.33
2023-04-15T22:15:32.768Z,36.88
2023-04-15T22:18:41.117Z,36.00
2023-04-15T22:21:44.944Z,36.25
2023-04-15T22:24:48.340Z,36.95
2023-04-15T22:27:51.467Z,34.08
2023-04-15T22:30:55.128Z,31.80
2023-04-15T22:33:58.559Z,27.42
2023-04-15T22:37:03.026Z,26.85
2023-04-15T22:40:06.782Z,25.25
2023-04-15T22:43:10.965Z,23.23
2023-04-15T22:46:14.745Z,24.65
2023-04-15T22:49:18.401Z,22.40
2023-04-15T22:52:30.003Z,20.47
2023-04-15T22:55:34.173Z,21.20
2023-04-15T22:58:38.581Z,21.25
2023-04-15T23:01:42.508Z,19.48
2023-04-15T23:04:46.204Z,18.67
2023-04-15T23:07:49.657Z,17.73
2023-04-15T23:10:52.774Z,18.25
2023-04-15T23:13:56.770Z,17.43
2023-04-15T23:17:00.066Z,16.77
2023-04-15T23:20:03.639Z,15.68
2023-04-15T23:23:07.302Z,15.85
2023-04-15T23:26:13.068Z,14.50
2023-04-15T23:29:16.465Z,14.90
2023-04-15T23:32:20.912Z,15.02
2023-04-15T23:35:25.563Z,14.40
2023-04-15T23:38:29.146Z,14.35
2023-04-15T23:41:32.370Z,14.65
2023-04-15T23:44:38.410Z,14.77
2023-04-15T23:47:42.090Z,14.20
2023-04-15T23:50:45.525Z,13.75
2023-04-15T23:53:49.463Z,14.13
2023-04-15T23:56:54.164Z,14.63
2023-04-15T23:59:57.302Z,14.18
